sensor_id;sensor_type;location;lat;lon;timestamp;temperature;humidity
27896;DHT22;15241;48.374;10.876;2023-02-16T00:02:22;2.30;99.90
27896;DHT22;15241;48.374;10.876;2023-02-16T00:07:21;2.30;99.90
27896;DHT22;15241;48.374;10.876;2023-02-16T00:12:21;2.30;99.90
27896;DHT22;15241;48.374;10.876;2023-02-16T00:17:20;2.30;99.90
27896;DHT22;15241;48.374;10.876;2023-02-16T00:22:19;2.20;99.90
27896;DHT22;15241;48.374;10.876;2023-02-16T00:27:18;2.10;99.90
27896;DHT22;15241;48.374;10.876;2023-02-16T00:32:16;2.10;99.90
27896;DHT22;15241;48.374;10.876;2023-02-16T00:37:15;2.10;99.90
27896;DHT22;15241;48.374;10.876;2023-02-16T00:42:17;1.90;99.90
27896;DHT22;15241;48.374;10.876;2023-02-16T00:47:20;2.00;99.90
27896;DHT22;15241;48.374;10.876;2023-02-16T00:57:41;1.90;99.90
27896;DHT22;15241;48.374;10.876;2023-02-16T01:02:40;1.70;99.90
27896;DHT22;15241;48.374;10.876;2023-02-16T01:07:40;1.70;99.90
27896;DHT22;15241;48.374;10.876;2023-02-16T01:12:40;1.60;99.90
27896;DHT22;15241;48.374;10.876;2023-02-16T01:17:39;1.60;99.90
27896;DHT22;15241;48.374;10.876;2023-02-16T01:22:38;1.60;99.90
27896;DHT22;15241;48.374;10.876;2023-02-16T01:27:37;1.60;99.90
27896;DHT22;15241;48.374;10.876;2023-02-16T01:32:36;1.60;99.90
27896;DHT22;15241;48.374;10.876;2023-02-16T01:37:35;1.60;99.90
27896;DHT22;15241;48.374;10.876;2023-02-16T01:42:39;1.60;99.90
27896;DHT22;15241;48.374;10.876;2023-02-16T01:47:39;1.60;99.90
27896;DHT22;15241;48.374;10.876;2023-02-16T01:52:42;1.70;99.90
27896;DHT22;15241;48.374;10.876;2023-02-16T02:02:51;1.70;99.90
27896;DHT22;15241;48.374;10.876;2023-02-16T02:07:54;1.70;99.90
27896;DHT22;15241;48.374;10.876;2023-02-16T02:18:02;1.70;99.90
27896;DHT22;15241;48.374;10.876;2023-02-16T02:23:23;1.70;99.90
27896;DHT22;15241;48.374;10.876;2023-02-16T02:28:25;1.70;99.90
27896;DHT22;15241;48.374;10.876;2023-02-16T02:33:38;1.70;99.90
27896;DHT22;15241;48.374;10.876;2023-02-16T02:38:39;1.70;99.90
27896;DHT22;15241;48.374;10.876;2023-02-16T02:43:41;1.60;99.90
27896;DHT22;15241;48.374;10.876;2023-02-16T02:48:41;1.60;99.90
27896;DHT22;15241;48.374;10.876;2023-02-16T02:53:42;1.50;99.90
27896;DHT22;15241;48.374;10.876;2023-02-16T02:58:42;1.50;99.90
27896;DHT22;15241;48.374;10.876;2023-02-16T03:03:44;1.40;99.90
27896;DHT22;15241;48.374;10.876;2023-02-16T03:08:46;1.30;99.90
27896;DHT22;15241;48.374;10.876;2023-02-16T03:13:48;1.30;99.90
27896;DHT22;15241;48.374;10.876;2023-02-16T03:18:47;1.20;99.90
27896;DHT22;15241;48.374;10.876;2023-02-16T03:23:48;1.10;99.90
27896;DHT22;15241;48.374;10.876;2023-02-16T03:28:49;0.90;99.90
27896;DHT22;15241;48.374;10.876;2023-02-16T03:33:49;0.60;99.90
27896;DHT22;15241;48.374;10.876;2023-02-16T03:38:49;0.60;99.90
27896;DHT22;15241;48.374;10.876;2023-02-16T03:43:48;0.80;99.90
27896;DHT22;15241;48.374;10.876;2023-02-16T03:48:47;0.80;99.90
27896;DHT22;15241;48.374;10.876;2023-02-16T03:53:46;0.90;99.90
27896;DHT22;15241;48.374;10.876;2023-02-16T03:58:45;0.90;99.90
27896;DHT22;15241;48.374;10.876;2023-02-16T04:03:44;0.90;99.90
27896;DHT22;15241;48.374;10.876;2023-02-16T04:08:43;0.80;99.90
27896;DHT22;15241;48.374;10.876;2023-02-16T04:13:41;0.80;99.90
27896;DHT22;15241;48.374;10.876;2023-02-16T04:18:40;0.80;99.90
27896;DHT22;15241;48.374;10.876;2023-02-16T04:23:39;0.80;99.90
27896;DHT22;15241;48.374;10.876;2023-02-16T04:28:38;0.80;99.90
27896;DHT22;15241;48.374;10.876;2023-02-16T04:33:37;0.80;99.90
27896;DHT22;15241;48.374;10.876;2023-02-16T04:38:36;0.80;99.90
27896;DHT22;15241;48.374;10.876;2023-02-16T04:43:35;0.80;99.90
27896;DHT22;15241;48.374;10.876;2023-02-16T04:48:34;0.80;99.90
27896;DHT22;15241;48.374;10.876;2023-02-16T04:53:32;0.80;99.90
27896;DHT22;15241;48.374;10.876;2023-02-16T04:58:31;0.80;99.90
27896;DHT22;15241;48.374;10.876;2023-02-16T05:03:30;0.70;99.90
27896;DHT22;15241;48.374;10.876;2023-02-16T05:08:29;0.70;99.90
27896;DHT22;15241;48.374;10.876;2023-02-16T05:13:28;0.70;99.90
27896;DHT22;15241;48.374;10.876;2023-02-16T05:18:27;0.70;99.90
27896;DHT22;15241;48.374;10.876;2023-02-16T05:23:26;0.70;99.90
27896;DHT22;15241;48.374;10.876;2023-02-16T05:28:25;0.80;99.90
27896;DHT22;15241;48.374;10.876;2023-02-16T05:33:24;0.80;99.90
27896;DHT22;15241;48.374;10.876;2023-02-16T05:38:23;0.70;99.90
27896;DHT22;15241;48.374;10.876;2023-02-16T05:43:22;0.80;99.90
27896;DHT22;15241;48.374;10.876;2023-02-16T05:48:21;0.70;99.90
27896;DHT22;15241;48.374;10.876;2023-02-16T05:53:20;0.80;99.90
27896;DHT22;15241;48.374;10.876;2023-02-16T05:58:19;0.70;99.90
27896;DHT22;15241;48.374;10.876;2023-02-16T06:03:18;0.70;99.90
27896;DHT22;15241;48.374;10.876;2023-02-16T06:08:17;0.80;99.90
27896;DHT22;15241;48.374;10.876;2023-02-16T06:13:16;0.70;99.90
27896;DHT22;15241;48.374;10.876;2023-02-16T06:18:15;0.70;99.90
27896;DHT22;15241;48.374;10.876;2023-02-16T06:23:14;0.70;99.90
27896;DHT22;15241;48.374;10.876;2023-02-16T06:28:13;0.80;99.90
27896;DHT22;15241;48.374;10.876;2023-02-16T06:33:12;0.80;99.90
27896;DHT22;15241;48.374;10.876;2023-02-16T06:38:11;0.80;99.90
27896;DHT22;15241;48.374;10.876;2023-02-16T06:43:10;0.80;99.90
27896;DHT22;15241;48.374;10.876;2023-02-16T06:48:09;0.80;99.90
27896;DHT22;15241;48.374;10.876;2023-02-16T06:53:08;0.80;99.90
27896;DHT22;15241;48.374;10.876;2023-02-16T06:58:08;0.90;99.90
27896;DHT22;15241;48.374;10.876;2023-02-16T07:03:07;0.90;99.90
27896;DHT22;15241;48.374;10.876;2023-02-16T07:08:06;1.00;99.90
27896;DHT22;15241;48.374;10.876;2023-02-16T07:13:04;1.10;99.90
27896;DHT22;15241;48.374;10.876;2023-02-16T07:18:04;1.10;99.90
27896;DHT22;15241;48.374;10.876;2023-02-16T07:23:03;1.30;99.90
27896;DHT22;15241;48.374;10.876;2023-02-16T07:28:02;1.40;99.90
27896;DHT22;15241;48.374;10.876;2023-02-16T07:33:01;1.50;99.90
27896;DHT22;15241;48.374;10.876;2023-02-16T07:38:00;1.70;99.90
27896;DHT22;15241;48.374;10.876;2023-02-16T07:43:00;1.80;99.90
27896;DHT22;15241;48.374;10.876;2023-02-16T07:47:59;2.00;99.90
27896;DHT22;15241;48.374;10.876;2023-02-16T07:53:00;2.00;99.90
27896;DHT22;15241;48.374;10.876;2023-02-16T07:57:59;2.20;99.90
27896;DHT22;15241;48.374;10.876;2023-02-16T08:02:58;2.40;99.90
27896;DHT22;15241;48.374;10.876;2023-02-16T08:07:57;2.60;99.90
27896;DHT22;15241;48.374;10.876;2023-02-16T08:12:56;2.80;99.90
27896;DHT22;15241;48.374;10.876;2023-02-16T08:17:55;2.90;99.90
27896;DHT22;15241;48.374;10.876;2023-02-16T08:22:54;3.10;99.90
27896;DHT22;15241;48.374;10.876;2023-02-16T08:27:53;3.40;99.90
27896;DHT22;15241;48.374;10.876;2023-02-16T08:32:52;3.60;99.90
27896;DHT22;15241;48.374;10.876;2023-02-16T08:37:51;3.80;99.90
27896;DHT22;15241;48.374;10.876;2023-02-16T08:42:50;4.00;99.90
27896;DHT22;15241;48.374;10.876;2023-02-16T08:47:49;4.20;99.90
27896;DHT22;15241;48.374;10.876;2023-02-16T08:52:49;4.60;99.90
27896;DHT22;15241;48.374;10.876;2023-02-16T08:57:48;4.80;99.90
27896;DHT22;15241;48.374;10.876;2023-02-16T09:02:47;5.00;99.90
27896;DHT22;15241;48.374;10.876;2023-02-16T09:07:46;5.30;99.90
27896;DHT22;15241;48.374;10.876;2023-02-16T09:12:45;5.40;99.90
27896;DHT22;15241;48.374;10.876;2023-02-16T09:17:43;5.70;99.90
27896;DHT22;15241;48.374;10.876;2023-02-16T09:22:44;5.90;99.90
27896;DHT22;15241;48.374;10.876;2023-02-16T09:27:43;6.20;99.90
27896;DHT22;15241;48.374;10.876;2023-02-16T09:32:42;6.40;99.90
27896;DHT22;15241;48.374;10.876;2023-02-16T09:37:41;6.70;99.90
27896;DHT22;15241;48.374;10.876;2023-02-16T09:42:49;7.00;99.90
27896;DHT22;15241;48.374;10.876;2023-02-16T09:47:50;7.30;99.90
27896;DHT22;15241;48.374;10.876;2023-02-16T09:58:04;7.90;99.90
27896;DHT22;15241;48.374;10.876;2023-02-16T10:08:20;9.20;99.90
27896;DHT22;15241;48.374;10.876;2023-02-16T10:18:31;12.50;99.90
27896;DHT22;15241;48.374;10.876;2023-02-16T10:23:40;15.90;99.90
27896;DHT22;15241;48.374;10.876;2023-02-16T10:28:44;19.60;95.80
27896;DHT22;15241;48.374;10.876;2023-02-16T10:33:45;21.50;78.50
27896;DHT22;15241;48.374;10.876;2023-02-16T10:38:48;23.90;65.80
27896;DHT22;15241;48.374;10.876;2023-02-16T10:48:58;29.20;50.70
27896;DHT22;15241;48.374;10.876;2023-02-16T10:54:02;31.10;44.00
27896;DHT22;15241;48.374;10.876;2023-02-16T10:59:04;31.10;40.40
27896;DHT22;15241;48.374;10.876;2023-02-16T11:04:04;31.60;38.90
27896;DHT22;15241;48.374;10.876;2023-02-16T11:09:03;32.30;37.20
27896;DHT22;15241;48.374;10.876;2023-02-16T11:14:04;34.40;34.00
27896;DHT22;15241;48.374;10.876;2023-02-16T11:19:06;35.30;32.10
27896;DHT22;15241;48.374;10.876;2023-02-16T11:24:08;37.20;30.10
27896;DHT22;15241;48.374;10.876;2023-02-16T11:29:16;36.90;28.60
27896;DHT22;15241;48.374;10.876;2023-02-16T11:34:21;38.40;28.00
27896;DHT22;15241;48.374;10.876;2023-02-16T11:39:22;39.20;26.80
27896;DHT22;15241;48.374;10.876;2023-02-16T11:44:26;40.90;25.70
27896;DHT22;15241;48.374;10.876;2023-02-16T11:49:32;40.60;25.30
27896;DHT22;15241;48.374;10.876;2023-02-16T11:54:31;41.20;24.50
27896;DHT22;15241;48.374;10.876;2023-02-16T11:59:34;39.40;24.00
27896;DHT22;15241;48.374;10.876;2023-02-16T12:04:51;39.00;24.60
27896;DHT22;15241;48.374;10.876;2023-02-16T12:09:55;40.90;24.40
27896;DHT22;15241;48.374;10.876;2023-02-16T12:14:59;40.90;23.50
27896;DHT22;15241;48.374;10.876;2023-02-16T12:20:04;42.50;23.50
27896;DHT22;15241;48.374;10.876;2023-02-16T12:25:14;42.30;22.10
27896;DHT22;15241;48.374;10.876;2023-02-16T12:35:41;41.30;22.70
27896;DHT22;15241;48.374;10.876;2023-02-16T12:40:42;39.90;22.70
27896;DHT22;15241;48.374;10.876;2023-02-16T12:45:43;41.60;22.10
27896;DHT22;15241;48.374;10.876;2023-02-16T12:50:45;40.70;22.90
27896;DHT22;15241;48.374;10.876;2023-02-16T12:55:47;41.00;22.60
27896;DHT22;15241;48.374;10.876;2023-02-16T13:00:50;40.50;22.60
27896;DHT22;15241;48.374;10.876;2023-02-16T13:05:52;39.50;23.80
27896;DHT22;15241;48.374;10.876;2023-02-16T13:16:05;41.60;22.20
27896;DHT22;15241;48.374;10.876;2023-02-16T13:21:07;40.80;21.60
27896;DHT22;15241;48.374;10.876;2023-02-16T13:26:16;41.60;21.40
27896;DHT22;15241;48.374;10.876;2023-02-16T13:31:27;42.10;21.30
27896;DHT22;15241;48.374;10.876;2023-02-16T13:36:49;41.60;21.20
27896;DHT22;15241;48.374;10.876;2023-02-16T13:42:11;43.50;20.90
27896;DHT22;15241;48.374;10.876;2023-02-16T13:47:12;42.00;20.10
27896;DHT22;15241;48.374;10.876;2023-02-16T13:52:25;43.30;20.40
27896;DHT22;15241;48.374;10.876;2023-02-16T13:57:57;42.30;20.60
27896;DHT22;15241;48.374;10.876;2023-02-16T14:02:59;40.20;20.60
27896;DHT22;15241;48.374;10.876;2023-02-16T14:08:30;42.00;20.70
27896;DHT22;15241;48.374;10.876;2023-02-16T14:13:31;44.60;20.40
27896;DHT22;15241;48.374;10.876;2023-02-16T14:18:36;45.10;19.70
27896;DHT22;15241;48.374;10.876;2023-02-16T14:23:35;45.30;19.50
27896;DHT22;15241;48.374;10.876;2023-02-16T14:28:55;42.80;19.10
27896;DHT22;15241;48.374;10.876;2023-02-16T14:34:00;40.30;20.10
27896;DHT22;15241;48.374;10.876;2023-02-16T14:39:00;37.40;21.80
27896;DHT22;15241;48.374;10.876;2023-02-16T14:49:54;35.10;23.00
27896;DHT22;15241;48.374;10.876;2023-02-16T15:00:28;37.30;22.40
27896;DHT22;15241;48.374;10.876;2023-02-16T15:05:29;35.00;22.60
27896;DHT22;15241;48.374;10.876;2023-02-16T15:10:30;33.80;24.10
27896;DHT22;15241;48.374;10.876;2023-02-16T15:15:37;32.10;25.10
27896;DHT22;15241;48.374;10.876;2023-02-16T15:25:52;29.50;27.30
27896;DHT22;15241;48.374;10.876;2023-02-16T15:30:54;26.60;29.10
27896;DHT22;15241;48.374;10.876;2023-02-16T15:35:55;25.40;30.50
27896;DHT22;15241;48.374;10.876;2023-02-16T15:40:58;24.00;32.40
27896;DHT22;15241;48.374;10.876;2023-02-16T15:45:58;22.90;34.50
27896;DHT22;15241;48.374;10.876;2023-02-16T15:51:01;21.20;37.70
27896;DHT22;15241;48.374;10.876;2023-02-16T15:56:02;20.30;38.30
27896;DHT22;15241;48.374;10.876;2023-02-16T16:01:03;19.30;39.50
27896;DHT22;15241;48.374;10.876;2023-02-16T16:06:04;18.40;40.50
27896;DHT22;15241;48.374;10.876;2023-02-16T16:11:04;17.90;41.70
27896;DHT22;15241;48.374;10.876;2023-02-16T16:16:04;17.10;42.80
27896;DHT22;15241;48.374;10.876;2023-02-16T16:21:11;16.60;43.90
27896;DHT22;15241;48.374;10.876;2023-02-16T16:26:18;16.30;45.10
27896;DHT22;15241;48.374;10.876;2023-02-16T16:31:29;15.60;46.10
27896;DHT22;15241;48.374;10.876;2023-02-16T16:36:18;15.20;47.20
27896;DHT22;15241;48.374;10.876;2023-02-16T16:41:26;14.90;51.00
27896;DHT22;15241;48.374;10.876;2023-02-16T16:46:27;14.60;50.20
27896;DHT22;15241;48.374;10.876;2023-02-16T16:51:38;14.20;50.00
27896;DHT22;15241;48.374;10.876;2023-02-16T16:56:38;14.00;50.40
27896;DHT22;15241;48.374;10.876;2023-02-16T17:01:38;13.90;51.00
27896;DHT22;15241;48.374;10.876;2023-02-16T17:06:36;13.50;51.20
27896;DHT22;15241;48.374;10.876;2023-02-16T17:16:37;13.30;52.90
27896;DHT22;15241;48.374;10.876;2023-02-16T17:21:37;13.10;53.70
27896;DHT22;15241;48.374;10.876;2023-02-16T17:26:36;12.90;55.00
27896;DHT22;15241;48.374;10.876;2023-02-16T17:31:35;12.70;54.60
27896;DHT22;15241;48.374;10.876;2023-02-16T17:36:34;12.50;55.10
27896;DHT22;15241;48.374;10.876;2023-02-16T17:41:34;12.30;55.20
27896;DHT22;15241;48.374;10.876;2023-02-16T17:46:33;12.00;55.80
27896;DHT22;15241;48.374;10.876;2023-02-16T17:51:32;11.80;56.20
27896;DHT22;15241;48.374;10.876;2023-02-16T17:56:32;11.80;56.70
27896;DHT22;15241;48.374;10.876;2023-02-16T18:01:31;11.70;56.70
27896;DHT22;15241;48.374;10.876;2023-02-16T18:06:30;11.80;57.40
27896;DHT22;15241;48.374;10.876;2023-02-16T18:11:29;11.80;57.10
27896;DHT22;15241;48.374;10.876;2023-02-16T18:16:28;11.80;57.00
27896;DHT22;15241;48.374;10.876;2023-02-16T18:26:34;11.60;58.00
27896;DHT22;15241;48.374;10.876;2023-02-16T18:31:33;11.60;58.10
27896;DHT22;15241;48.374;10.876;2023-02-16T18:36:32;11.60;58.90
27896;DHT22;15241;48.374;10.876;2023-02-16T18:41:31;11.50;59.20
27896;DHT22;15241;48.374;10.876;2023-02-16T18:46:30;11.40;59.10
27896;DHT22;15241;48.374;10.876;2023-02-16T18:51:29;11.40;59.40
27896;DHT22;15241;48.374;10.876;2023-02-16T18:56:28;11.40;59.90
27896;DHT22;15241;48.374;10.876;2023-02-16T19:01:29;11.40;60.90
27896;DHT22;15241;48.374;10.876;2023-02-16T19:06:29;11.30;60.30
27896;DHT22;15241;48.374;10.876;2023-02-16T19:11:28;11.20;61.40
27896;DHT22;15241;48.374;10.876;2023-02-16T19:16:27;11.20;61.80
27896;DHT22;15241;48.374;10.876;2023-02-16T19:21:26;11.20;62.60
27896;DHT22;15241;48.374;10.876;2023-02-16T19:26:25;11.20;63.00
27896;DHT22;15241;48.374;10.876;2023-02-16T19:31:26;11.10;63.50
27896;DHT22;15241;48.374;10.876;2023-02-16T19:36:26;11.00;63.60
27896;DHT22;15241;48.374;10.876;2023-02-16T19:41:26;11.00;64.40
27896;DHT22;15241;48.374;10.876;2023-02-16T19:46:26;11.00;64.70
27896;DHT22;15241;48.374;10.876;2023-02-16T19:51:25;10.90;65.30
27896;DHT22;15241;48.374;10.876;2023-02-16T19:56:25;11.00;65.40
27896;DHT22;15241;48.374;10.876;2023-02-16T20:01:26;10.80;65.70
27896;DHT22;15241;48.374;10.876;2023-02-16T20:06:26;10.90;67.20
27896;DHT22;15241;48.374;10.876;2023-02-16T20:11:27;10.90;66.80
27896;DHT22;15241;48.374;10.876;2023-02-16T20:16:27;10.80;67.50
27896;DHT22;15241;48.374;10.876;2023-02-16T20:21:27;10.70;68.30
27896;DHT22;15241;48.374;10.876;2023-02-16T20:26:28;10.80;68.80
27896;DHT22;15241;48.374;10.876;2023-02-16T20:31:30;10.70;69.00
27896;DHT22;15241;48.374;10.876;2023-02-16T20:36:29;10.70;69.40
27896;DHT22;15241;48.374;10.876;2023-02-16T20:41:28;10.80;69.70
27896;DHT22;15241;48.374;10.876;2023-02-16T20:46:26;10.80;69.80
27896;DHT22;15241;48.374;10.876;2023-02-16T20:51:25;10.70;70.20
27896;DHT22;15241;48.374;10.876;2023-02-16T20:56:25;10.80;70.10
27896;DHT22;15241;48.374;10.876;2023-02-16T21:01:26;10.80;70.50
27896;DHT22;15241;48.374;10.876;2023-02-16T21:06:25;10.80;70.60
27896;DHT22;15241;48.374;10.876;2023-02-16T21:11:25;10.80;70.70
27896;DHT22;15241;48.374;10.876;2023-02-16T21:16:24;10.80;70.90
27896;DHT22;15241;48.374;10.876;2023-02-16T21:21:23;10.80;71.20
27896;DHT22;15241;48.374;10.876;2023-02-16T21:26:24;10.70;71.90
27896;DHT22;15241;48.374;10.876;2023-02-16T21:31:24;10.60;72.50
27896;DHT22;15241;48.374;10.876;2023-02-16T21:36:24;10.70;72.90
27896;DHT22;15241;48.374;10.876;2023-02-16T21:41:25;10.60;73.30
27896;DHT22;15241;48.374;10.876;2023-02-16T21:46:25;10.60;73.40
27896;DHT22;15241;48.374;10.876;2023-02-16T21:51:26;10.60;73.40
27896;DHT22;15241;48.374;10.876;2023-02-16T21:56:33;10.60;74.10
27896;DHT22;15241;48.374;10.876;2023-02-16T22:01:35;10.60;74.10
27896;DHT22;15241;48.374;10.876;2023-02-16T22:06:36;10.60;74.50
27896;DHT22;15241;48.374;10.876;2023-02-16T22:11:35;10.50;74.60
27896;DHT22;15241;48.374;10.876;2023-02-16T22:16:36;10.50;74.80
27896;DHT22;15241;48.374;10.876;2023-02-16T22:21:36;10.50;74.80
27896;DHT22;15241;48.374;10.876;2023-02-16T22:26:36;10.50;74.70
27896;DHT22;15241;48.374;10.876;2023-02-16T22:31:35;10.50;74.90
27896;DHT22;15241;48.374;10.876;2023-02-16T22:36:36;10.40;75.60
27896;DHT22;15241;48.374;10.876;2023-02-16T22:41:35;10.40;75.70
27896;DHT22;15241;48.374;10.876;2023-02-16T22:46:34;10.30;76.20
27896;DHT22;15241;48.374;10.876;2023-02-16T22:51:33;10.30;76.50
27896;DHT22;15241;48.374;10.876;2023-02-16T22:56:32;10.40;76.50
27896;DHT22;15241;48.374;10.876;2023-02-16T23:01:31;10.40;76.40
27896;DHT22;15241;48.374;10.876;2023-02-16T23:06:33;10.30;76.70
27896;DHT22;15241;48.374;10.876;2023-02-16T23:11:32;10.30;76.90
27896;DHT22;15241;48.374;10.876;2023-02-16T23:16:32;10.30;77.80
27896;DHT22;15241;48.374;10.876;2023-02-16T23:21:32;10.20;77.90
27896;DHT22;15241;48.374;10.876;2023-02-16T23:26:31;10.20;78.10
27896;DHT22;15241;48.374;10.876;2023-02-16T23:31:35;10.10;78.30
27896;DHT22;15241;48.374;10.876;2023-02-16T23:36:36;10.10;78.50
27896;DHT22;15241;48.374;10.876;2023-02-16T23:41:36;10.10;79.60
27896;DHT22;15241;48.374;10.876;2023-02-16T23:46:35;10.10;79.60
27896;DHT22;15241;48.374;10.876;2023-02-16T23:51:34;10.10;80.90
27896;DHT22;15241;48.374;10.876;2023-02-16T23:56:33;10.00;80.30
